Judi M. — WCX8376 — position and weather

sailwx.info

Track history (hours):
 
Tides and Currents Weather Stations Pressure Air Temp Water Temp Dewpoint Dewpoint Depression Visibility Wind Speed Wind Dir Waves Ship Positions

Judi M.

Owner: MANKE TUG & BARGE CO INC, SHELTON, WA. More information available from US FCC via Universal Licensing System and Coast Guard Vessel Documentation Center.

Last reported at 2018-Feb-22 02:17 UTC. Time now 2018-Feb-22 08:41 UTC.
Position N 47°34' W 122°22'.

Length 29 m; draft 4 m.

Type: Tow > 200 m length. MMSI: 366740920.

Date/timePositionNaut miles runAvg speedWind from/ knotsBaromVisibWave heightAir tempDewpointWater temp
2018-Feb-22 02:17N 47°34' W 122°22'1 2.1
2018-Feb-22 02:00N 47°35' W 122°22'0 0.8
2018-Feb-22 01:30N 47°35' W 122°21'0 0.0
2018-Feb-22 01:00N 47°35' W 122°21'1 1.7
2018-Feb-22 00:30N 47°34' W 122°22'0 0.0
2018-Feb-22 00:00N 47°34' W 122°22'0 0.0
2018-Feb-21 23:30N 47°34' W 122°22'0 0.0
2018-Feb-21 23:00N 47°34' W 122°22'0 0.0
2018-Feb-21 22:30N 47°34' W 122°22'0 0.0
2018-Feb-21 22:00N 47°34' W 122°22'0 0.0
2018-Feb-21 21:30N 47°34' W 122°22'0 0.0
2018-Feb-21 21:00N 47°34' W 122°22'0 0.0
2018-Feb-21 20:30N 47°34' W 122°22'0 0.0
2018-Feb-21 20:00N 47°34' W 122°22'0 0.0
2018-Feb-21 19:30N 47°34' W 122°22'0 0.0
2018-Feb-21 19:00N 47°34' W 122°22'0 0.0
2018-Feb-21 18:30N 47°34' W 122°22'0 0.0
2018-Feb-21 18:00N 47°34' W 122°22'0 0.0
2018-Feb-21 17:29N 47°34' W 122°22'0 0.0
2018-Feb-21 17:00N 47°34' W 122°22'0 0.0
2018-Feb-21 16:30N 47°34' W 122°22'0 0.0
2018-Feb-21 16:00N 47°34' W 122°22'0 0.0
2018-Feb-21 15:30N 47°34' W 122°22'0 0.0
2018-Feb-21 15:00N 47°34' W 122°22'0 0.0
2018-Feb-21 14:30N 47°34' W 122°22'0 0.0
2018-Feb-21 14:00N 47°34' W 122°22'0 0.0
2018-Feb-21 13:30N 47°34' W 122°22'0 0.0
2018-Feb-21 13:00N 47°34' W 122°22'0 0.0
2018-Feb-21 12:30N 47°34' W 122°22'0 0.0
2018-Feb-21 12:00N 47°34' W 122°22'0 0.0
2018-Feb-21 11:30N 47°34' W 122°22'0 0.0
2018-Feb-21 11:00N 47°34' W 122°22'0 0.0
2018-Feb-21 10:30N 47°34' W 122°22'0 0.0
2018-Feb-21 10:00N 47°34' W 122°22'1 1.5
2018-Feb-21 09:30N 47°35' W 122°22'1 2.2
2018-Feb-21 09:00N 47°36' W 122°23'3 6.0
2018-Feb-21 08:30N 47°37' W 122°27'3 5.9
2018-Feb-21 08:00N 47°40' W 122°28'3 6.2
2018-Feb-21 07:30N 47°43' W 122°27'3 6.1
2018-Feb-21 07:00N 47°46' W 122°27'3 6.2
2018-Feb-21 06:30N 47°49' W 122°28'3 5.9
2018-Feb-21 06:00N 47°52' W 122°29'3 5.3
2018-Feb-21 05:30N 47°55' W 122°30'3 5.5
2018-Feb-21 05:00N 47°56' W 122°33'3 5.9
2018-Feb-21 04:30N 47°59' W 122°36'9 0.6
2018-Feb-20 11:38N 48°06' W 122°45'1 7.7
2018-Feb-20 11:26N 48°06' W 122°43'9 6.4
2018-Feb-20 10:04N 47°59' W 122°35'0 8.2
2018-Feb-20 10:00N 47°59' W 122°35'4 7.9
2018-Feb-20 09:30N 47°56' W 122°30'4 8.2
2018-Feb-20 09:00N 47°53' W 122°28'4 8.2
2018-Feb-20 08:30N 47°49' W 122°26'4 7.7
2018-Feb-20 08:00N 47°45' W 122°26'4 7.8
2018-Feb-20 07:30N 47°41' W 122°27'4 7.0
2018-Feb-20 06:59N 47°38' W 122°25'3 7.1
2018-Feb-20 06:30N 47°35' W 122°22'1 1.5
2018-Feb-20 06:00N 47°34' W 122°22'0 0.0
2018-Feb-20 05:30N 47°34' W 122°22'  
2018-Feb-17 14:53N 47°34' W 122°22'0 0.0
2018-Feb-17 14:31N 47°34' W 122°22'1 1.4
2018-Feb-17 14:00N 47°35' W 122°22'1 1.7
2018-Feb-17 13:31N 47°36' W 122°22'3 5.3
2018-Feb-17 13:01N 47°37' W 122°26'3 6.0
2018-Feb-17 12:31N 47°40' W 122°28'3 5.8
2018-Feb-17 12:01N 47°42' W 122°28'3 5.4
2018-Feb-17 11:30N 47°45' W 122°27'3 5.8
2018-Feb-17 11:01N 47°48' W 122°28'3 6.3
2018-Feb-17 10:31N 47°51' W 122°29'3 6.8
2018-Feb-17 10:01N 47°54' W 122°30'4 7.2
2018-Feb-17 09:30N 47°57' W 122°34'3 0.1
2018-Feb-16 08:18N 48°00' W 122°36'3 7.2
2018-Feb-16 07:57N 47°58' W 122°34'3 7.6
2018-Feb-16 07:31N 47°56' W 122°30'4 7.7
2018-Feb-16 07:01N 47°53' W 122°28'4 8.4
2018-Feb-16 06:31N 47°48' W 122°26'4 8.5
2018-Feb-16 06:01N 47°44' W 122°26'4 8.5
2018-Feb-16 05:30N 47°40' W 122°27'4 7.7
2018-Feb-16 05:01N 47°37' W 122°23'3 5.6
2018-Feb-16 04:30N 47°34' W 122°22'0 0.0
2018-Feb-16 04:00N 47°34' W 122°22'  
Track history (hours):
 
Tides and Currents Weather Stations Pressure Air Temp Water Temp Dewpoint Dewpoint Depression Visibility Wind Speed Wind Dir Waves Ship Positions

Judi M.

Owner: MANKE TUG & BARGE CO INC, SHELTON, WA. More information available from US FCC via Universal Licensing System and Coast Guard Vessel Documentation Center.

Last reported at 2018-Feb-22 02:17 UTC. Time now 2018-Feb-22 08:41 UTC.
Position N 47°34' W 122°22'.

Length 29 m; draft 4 m.

Type: Tow > 200 m length. MMSI: 366740920.

Date/timePositionNaut miles runAvg speedWind from/ knotsBaromVisibWave heightAir tempDewpointWater temp
2018-Feb-22 02:17N 47°34' W 122°22'1 2.1
2018-Feb-22 02:00N 47°35' W 122°22'0 0.8
2018-Feb-22 01:30N 47°35' W 122°21'0 0.0
2018-Feb-22 01:00N 47°35' W 122°21'1 1.7
2018-Feb-22 00:30N 47°34' W 122°22'0 0.0
2018-Feb-22 00:00N 47°34' W 122°22'0 0.0
2018-Feb-21 23:30N 47°34' W 122°22'0 0.0
2018-Feb-21 23:00N 47°34' W 122°22'0 0.0
2018-Feb-21 22:30N 47°34' W 122°22'0 0.0
2018-Feb-21 22:00N 47°34' W 122°22'0 0.0
2018-Feb-21 21:30N 47°34' W 122°22'0 0.0
2018-Feb-21 21:00N 47°34' W 122°22'0 0.0
2018-Feb-21 20:30N 47°34' W 122°22'0 0.0
2018-Feb-21 20:00N 47°34' W 122°22'0 0.0
2018-Feb-21 19:30N 47°34' W 122°22'0 0.0
2018-Feb-21 19:00N 47°34' W 122°22'0 0.0
2018-Feb-21 18:30N 47°34' W 122°22'0 0.0
2018-Feb-21 18:00N 47°34' W 122°22'0 0.0
2018-Feb-21 17:29N 47°34' W 122°22'0 0.0
2018-Feb-21 17:00N 47°34' W 122°22'0 0.0
2018-Feb-21 16:30N 47°34' W 122°22'0 0.0
2018-Feb-21 16:00N 47°34' W 122°22'0 0.0
2018-Feb-21 15:30N 47°34' W 122°22'0 0.0
2018-Feb-21 15:00N 47°34' W 122°22'0 0.0
2018-Feb-21 14:30N 47°34' W 122°22'0 0.0
2018-Feb-21 14:00N 47°34' W 122°22'0 0.0
2018-Feb-21 13:30N 47°34' W 122°22'0 0.0
2018-Feb-21 13:00N 47°34' W 122°22'0 0.0
2018-Feb-21 12:30N 47°34' W 122°22'0 0.0
2018-Feb-21 12:00N 47°34' W 122°22'0 0.0
2018-Feb-21 11:30N 47°34' W 122°22'0 0.0
2018-Feb-21 11:00N 47°34' W 122°22'0 0.0
2018-Feb-21 10:30N 47°34' W 122°22'0 0.0
2018-Feb-21 10:00N 47°34' W 122°22'1 1.5
2018-Feb-21 09:30N 47°35' W 122°22'1 2.2
2018-Feb-21 09:00N 47°36' W 122°23'3 6.0
2018-Feb-21 08:30N 47°37' W 122°27'3 5.9
2018-Feb-21 08:00N 47°40' W 122°28'3 6.2
2018-Feb-21 07:30N 47°43' W 122°27'3 6.1
2018-Feb-21 07:00N 47°46' W 122°27'3 6.2
2018-Feb-21 06:30N 47°49' W 122°28'3 5.9
2018-Feb-21 06:00N 47°52' W 122°29'3 5.3
2018-Feb-21 05:30N 47°55' W 122°30'3 5.5
2018-Feb-21 05:00N 47°56' W 122°33'3 5.9
2018-Feb-21 04:30N 47°59' W 122°36'9 0.6
2018-Feb-20 11:38N 48°06' W 122°45'1 7.7
2018-Feb-20 11:26N 48°06' W 122°43'9 6.4
2018-Feb-20 10:04N 47°59' W 122°35'0 8.2
2018-Feb-20 10:00N 47°59' W 122°35'4 7.9
2018-Feb-20 09:30N 47°56' W 122°30'4 8.2
2018-Feb-20 09:00N 47°53' W 122°28'4 8.2
2018-Feb-20 08:30N 47°49' W 122°26'4 7.7
2018-Feb-20 08:00N 47°45' W 122°26'4 7.8
2018-Feb-20 07:30N 47°41' W 122°27'4 7.0
2018-Feb-20 06:59N 47°38' W 122°25'3 7.1
2018-Feb-20 06:30N 47°35' W 122°22'1 1.5
2018-Feb-20 06:00N 47°34' W 122°22'0 0.0
2018-Feb-20 05:30N 47°34' W 122°22'  
2018-Feb-17 14:53N 47°34' W 122°22'0 0.0
2018-Feb-17 14:31N 47°34' W 122°22'1 1.4
2018-Feb-17 14:00N 47°35' W 122°22'1 1.7
2018-Feb-17 13:31N 47°36' W 122°22'3 5.3
2018-Feb-17 13:01N 47°37' W 122°26'3 6.0
2018-Feb-17 12:31N 47°40' W 122°28'3 5.8
2018-Feb-17 12:01N 47°42' W 122°28'3 5.4
2018-Feb-17 11:30N 47°45' W 122°27'3 5.8
2018-Feb-17 11:01N 47°48' W 122°28'3 6.3
2018-Feb-17 10:31N 47°51' W 122°29'3 6.8
2018-Feb-17 10:01N 47°54' W 122°30'4 7.2
2018-Feb-17 09:30N 47°57' W 122°34'3 0.1
2018-Feb-16 08:18N 48°00' W 122°36'3 7.2
2018-Feb-16 07:57N 47°58' W 122°34'3 7.6
2018-Feb-16 07:31N 47°56' W 122°30'4 7.7
2018-Feb-16 07:01N 47°53' W 122°28'4 8.4
2018-Feb-16 06:31N 47°48' W 122°26'4 8.5
2018-Feb-16 06:01N 47°44' W 122°26'4 8.5
2018-Feb-16 05:30N 47°40' W 122°27'4 7.7
2018-Feb-16 05:01N 47°37' W 122°23'3 5.6
2018-Feb-16 04:30N 47°34' W 122°22'0 0.0
2018-Feb-16 04:00N 47°34' W 122°22'  

Dump ship's entire track history